createdAt,value
2022-11-03T00:00:14.447Z,7.80
2022-11-03T00:01:12.004Z,7.78
2022-11-03T00:02:09.367Z,8.01
2022-11-03T00:03:06.956Z,8.22
2022-11-03T00:04:05.410Z,8.57
2022-11-03T00:05:22.654Z,8.43
2022-11-03T00:06:19.924Z,8.52
2022-11-03T00:07:21.400Z,8.23
2022-11-03T00:08:18.725Z,8.26
2022-11-03T00:09:17.137Z,7.78
2022-11-03T00:10:14.496Z,7.94
2022-11-03T00:11:13.163Z,7.68
2022-11-03T00:12:10.526Z,7.94
2022-11-03T00:13:07.918Z,7.52
2022-11-03T00:14:06.319Z,7.54
2022-11-03T00:15:03.788Z,7.24
2022-11-03T00:16:01.119Z,7.66
2022-11-03T00:16:58.773Z,8.61
2022-11-03T00:17:56.047Z,11.74
2022-11-03T00:18:53.938Z,9.02
2022-11-03T00:19:51.227Z,8.05
2022-11-03T00:21:05.688Z,9.28
2022-11-03T00:22:03.077Z,28.28
2022-11-03T00:23:00.373Z,61.93
2022-11-03T00:23:57.723Z,57.30
2022-11-03T00:24:55.053Z,49.88
2022-11-03T00:25:52.374Z,42.23
2022-11-03T00:26:49.672Z,27.27
2022-11-03T00:27:46.991Z,15.94
2022-11-03T00:28:48.166Z,15.12
2022-11-03T00:29:45.562Z,11.36
2022-11-03T00:30:42.865Z,9.47
2022-11-03T00:31:41.390Z,8.51
2022-11-03T00:32:38.679Z,8.47
2022-11-03T00:33:36.792Z,8.67
2022-11-03T00:34:34.128Z,8.09
2022-11-03T00:35:31.827Z,8.13
2022-11-03T00:36:30.644Z,7.69
2022-11-03T00:37:27.912Z,8.32
2022-11-03T00:38:25.294Z,8.16
2022-11-03T00:39:22.587Z,8.09
2022-11-03T00:40:19.876Z,7.91
2022-11-03T00:41:17.978Z,7.64
2022-11-03T00:42:15.294Z,7.54
2022-11-03T00:43:12.589Z,8.10
2022-11-03T00:44:10.692Z,7.70
2022-11-03T00:45:08.584Z,8.00
2022-11-03T00:46:07.299Z,8.15
2022-11-03T00:47:04.647Z,7.96
2022-11-03T00:48:20.369Z,7.75
2022-11-03T00:49:17.663Z,7.77
2022-11-03T00:50:14.949Z,7.85
2022-11-03T00:51:12.216Z,7.51
2022-11-03T00:52:09.818Z,7.95
2022-11-03T00:53:07.425Z,8.19
2022-11-03T00:54:05.938Z,7.79
2022-11-03T00:55:03.353Z,7.53
2022-11-03T00:56:01.192Z,7.57
2022-11-03T00:56:58.487Z,7.62
2022-11-03T00:57:55.808Z,7.08
2022-11-03T00:58:53.941Z,7.75
2022-11-03T00:59:51.225Z,7.38
2022-11-03T01:00:48.686Z,7.75
2022-11-03T01:01:47.767Z,7.20
2022-11-03T01:02:45.471Z,7.37
2022-11-03T01:04:03.116Z,7.65
2022-11-03T01:05:18.809Z,7.05
2022-11-03T01:06:34.472Z,7.39
2022-11-03T01:07:31.753Z,7.40
2022-11-03T01:08:36.212Z,7.04
2022-11-03T01:09:33.513Z,7.15
2022-11-03T01:10:30.808Z,7.44
2022-11-03T01:11:46.337Z,7.05
2022-11-03T01:12:43.629Z,7.55
2022-11-03T01:13:40.927Z,8.20
2022-11-03T01:14:44.593Z,7.86
2022-11-03T01:15:41.874Z,7.78
2022-11-03T01:16:39.631Z,7.67
2022-11-03T01:17:37.000Z,8.25
2022-11-03T01:18:34.303Z,7.77
2022-11-03T01:19:31.669Z,7.72
2022-11-03T01:20:28.986Z,7.28
2022-11-03T01:21:26.751Z,8.03
2022-11-03T01:22:24.226Z,7.78
2022-11-03T01:23:21.527Z,8.25
2022-11-03T01:24:19.209Z,7.88
2022-11-03T01:25:16.558Z,8.00
2022-11-03T01:26:14.693Z,7.54
2022-11-03T01:27:13.836Z,7.76
2022-11-03T01:28:11.136Z,8.12
2022-11-03T01:29:08.483Z,7.42
2022-11-03T01:30:06.091Z,7.62
2022-11-03T01:31:07.599Z,7.60
2022-11-03T01:32:05.106Z,7.74
2022-11-03T01:33:02.407Z,7.49
2022-11-03T01:33:59.754Z,7.42
2022-11-03T01:34:57.049Z,7.54
2022-11-03T01:35:54.364Z,7.27
2022-11-03T01:36:51.654Z,7.72
2022-11-03T01:37:48.999Z,7.43
2022-11-03T01:38:46.663Z,7.09
2022-11-03T01:39:43.968Z,7.40
2022-11-03T01:40:41.310Z,7.21
2022-11-03T01:41:38.721Z,6.91
2022-11-03T01:42:35.998Z,7.20
2022-11-03T01:43:33.442Z,7.22
2022-11-03T01:44:30.932Z,7.37
2022-11-03T01:45:28.238Z,7.27
2022-11-03T01:46:28.916Z,6.91
2022-11-03T01:47:29.525Z,6.87
2022-11-03T01:48:28.014Z,6.84
2022-11-03T01:49:43.951Z,7.65
2022-11-03T01:50:45.232Z,7.64
2022-11-03T01:51:46.036Z,7.10
2022-11-03T01:52:49.081Z,7.77
2022-11-03T01:53:49.015Z,7.59
2022-11-03T01:54:48.752Z,6.90
2022-11-03T01:55:49.064Z,7.34
2022-11-03T01:56:49.027Z,7.27
2022-11-03T01:58:06.637Z,7.17
2022-11-03T01:59:04.713Z,8.18
2022-11-03T02:00:02.640Z,7.88
2022-11-03T02:01:01.621Z,7.56
2022-11-03T02:01:59.054Z,7.45
2022-11-03T02:02:56.577Z,7.26
2022-11-03T02:04:08.721Z,7.48
2022-11-03T02:05:10.488Z,7.67
2022-11-03T02:06:08.921Z,7.46
2022-11-03T02:07:12.691Z,8.04
2022-11-03T02:08:17.394Z,7.20
2022-11-03T02:09:14.982Z,7.03
2022-11-03T02:10:12.405Z,7.21
2022-11-03T02:11:28.160Z,7.56
2022-11-03T02:12:26.012Z,7.22
2022-11-03T02:13:25.286Z,7.17
2022-11-03T02:14:22.669Z,7.23
2022-11-03T02:15:22.095Z,7.15
2022-11-03T02:16:22.065Z,7.22
2022-11-03T02:17:21.975Z,7.33
2022-11-03T02:18:22.587Z,7.11
2022-11-03T02:19:25.739Z,6.66
2022-11-03T02:20:27.068Z,7.40
2022-11-03T02:21:30.511Z,7.38
2022-11-03T02:22:42.797Z,7.31
2022-11-03T02:23:46.872Z,6.80
2022-11-03T02:24:54.155Z,7.57
2022-11-03T02:25:54.266Z,7.13
2022-11-03T02:26:55.655Z,6.60
2022-11-03T02:27:53.015Z,6.89
2022-11-03T02:28:50.507Z,7.15
2022-11-03T02:29:48.548Z,7.20
2022-11-03T02:31:16.483Z,7.02
2022-11-03T02:32:22.199Z,7.34
2022-11-03T02:33:34.575Z,6.96
2022-11-03T02:34:41.600Z,7.12
2022-11-03T02:35:45.931Z,7.55
2022-11-03T02:36:48.878Z,7.34
2022-11-03T02:37:49.336Z,7.49
2022-11-03T02:39:09.746Z,6.97
2022-11-03T02:40:13.661Z,6.63
2022-11-03T02:41:13.343Z,7.28
2022-11-03T02:42:13.255Z,6.85
2022-11-03T02:43:12.677Z,6.58
2022-11-03T02:44:14.890Z,7.11
2022-11-03T02:45:17.480Z,7.35
2022-11-03T02:46:17.245Z,6.85
2022-11-03T02:47:15.201Z,7.04
2022-11-03T02:48:15.505Z,7.00
2022-11-03T02:49:13.235Z,7.48
2022-11-03T02:50:10.811Z,7.29
2022-11-03T02:51:08.147Z,6.79
2022-11-03T02:52:06.639Z,6.83
2022-11-03T02:53:04.133Z,6.97
2022-11-03T02:54:01.510Z,6.71
2022-11-03T02:55:02.230Z,6.79
2022-11-03T02:56:11.065Z,7.37
2022-11-03T02:57:08.324Z,6.67
2022-11-03T02:58:14.614Z,7.05
2022-11-03T02:59:16.165Z,6.85
2022-11-03T03:00:15.852Z,7.39
2022-11-03T03:01:35.000Z,6.89
2022-11-03T03:02:39.394Z,7.20
2022-11-03T03:03:43.504Z,6.70
2022-11-03T03:04:43.976Z,6.98
2022-11-03T03:05:43.594Z,6.94
2022-11-03T03:06:49.002Z,7.29
2022-11-03T03:07:50.226Z,7.14
2022-11-03T03:08:51.616Z,6.92
2022-11-03T03:10:11.762Z,7.20
2022-11-03T03:11:12.277Z,7.18
2022-11-03T03:12:11.092Z,7.31
2022-11-03T03:13:11.162Z,7.00
2022-11-03T03:14:12.759Z,7.45
2022-11-03T03:15:10.194Z,7.37
2022-11-03T03:16:36.600Z,7.36
2022-11-03T03:17:48.891Z,7.25
2022-11-03T03:18:46.268Z,7.58
2022-11-03T03:19:49.472Z,7.52
2022-11-03T03:21:03.556Z,7.10
2022-11-03T03:22:04.936Z,7.23
2022-11-03T03:23:11.694Z,7.39
2022-11-03T03:24:14.753Z,7.25
2022-11-03T03:25:16.434Z,7.18
2022-11-03T03:26:19.254Z,7.23
2022-11-03T03:27:20.631Z,7.20
2022-11-03T03:28:25.521Z,7.52
2022-11-03T03:29:28.446Z,7.07
2022-11-03T03:30:27.980Z,7.42
2022-11-03T03:31:28.301Z,7.45
2022-11-03T03:32:28.576Z,7.54
2022-11-03T03:34:35.614Z,7.51
2022-11-03T03:35:36.378Z,7.49
2022-11-03T03:36:36.387Z,7.74
2022-11-03T03:37:37.802Z,7.42
2022-11-03T03:38:39.701Z,7.26
2022-11-03T03:39:41.024Z,7.25
2022-11-03T03:40:42.298Z,7.66
2022-11-03T03:41:41.335Z,7.54
2022-11-03T03:42:40.848Z,7.19
2022-11-03T03:43:39.906Z,7.54
2022-11-03T03:44:39.685Z,7.87
2022-11-03T03:45:38.738Z,7.28
2022-11-03T03:46:43.596Z,7.14
2022-11-03T03:47:41.106Z,7.13
2022-11-03T03:48:38.543Z,7.52
2022-11-03T03:49:35.864Z,7.37
2022-11-03T03:50:37.432Z,7.52
2022-11-03T03:51:35.531Z,7.37
2022-11-03T03:52:34.847Z,7.41
2022-11-03T03:53:32.215Z,7.55
2022-11-03T03:54:29.501Z,7.76
2022-11-03T03:55:34.277Z,7.34
2022-11-03T03:56:37.008Z,7.43
2022-11-03T03:57:34.322Z,7.30
2022-11-03T03:58:31.763Z,7.25
2022-11-03T03:59:29.510Z,7.62
2022-11-03T04:00:26.799Z,7.54
2022-11-03T04:01:24.180Z,7.47
2022-11-03T04:02:21.705Z,7.28
2022-11-03T04:03:21.577Z,7.85
2022-11-03T04:04:18.902Z,7.67
2022-11-03T04:05:16.197Z,7.70
2022-11-03T04:06:13.476Z,7.49
2022-11-03T04:07:29.600Z,7.50
2022-11-03T04:08:26.880Z,7.21
2022-11-03T04:09:24.205Z,7.02
2022-11-03T04:10:22.748Z,7.02
2022-11-03T04:11:38.521Z,7.62
2022-11-03T04:12:54.356Z,7.74
2022-11-03T04:14:10.167Z,7.21
2022-11-03T04:15:27.951Z,6.79
2022-11-03T04:16:44.448Z,7.07
2022-11-03T04:18:05.691Z,7.43
2022-11-03T04:19:21.999Z,7.17
2022-11-03T04:20:37.919Z,6.78
2022-11-03T04:21:53.535Z,7.03
2022-11-03T04:22:50.820Z,7.43
2022-11-03T04:23:48.180Z,6.94
2022-11-03T04:24:46.687Z,7.18
2022-11-03T04:25:49.912Z,8.39
2022-11-03T04:26:47.471Z,7.52
2022-11-03T04:27:44.965Z,7.65
2022-11-03T04:28:42.866Z,7.95
2022-11-03T04:29:40.185Z,8.79
2022-11-03T04:30:37.497Z,9.88
2022-11-03T04:31:36.491Z,9.06
2022-11-03T04:32:33.918Z,9.69
2022-11-03T04:33:31.229Z,7.85
2022-11-03T04:34:28.622Z,6.96
2022-11-03T04:35:28.154Z,7.67
2022-11-03T04:36:26.429Z,7.91
2022-11-03T04:37:27.343Z,7.48
2022-11-03T04:38:26.588Z,6.62
2022-11-03T04:39:24.179Z,7.12
2022-11-03T04:40:21.534Z,7.10
2022-11-03T04:41:24.758Z,8.14
2022-11-03T04:42:22.477Z,8.60
2022-11-03T04:43:20.846Z,7.50
2022-11-03T04:44:18.471Z,7.37
2022-11-03T04:45:30.539Z,7.62
2022-11-03T04:46:29.408Z,6.90
2022-11-03T04:47:26.988Z,7.03
2022-11-03T04:48:25.075Z,7.15
2022-11-03T04:49:23.355Z,7.35
2022-11-03T04:50:22.252Z,6.94
2022-11-03T04:51:25.896Z,7.57
2022-11-03T04:52:23.468Z,7.88
2022-11-03T04:53:22.076Z,6.98
2022-11-03T04:54:21.820Z,6.97
2022-11-03T04:55:20.386Z,6.79
2022-11-03T04:56:21.005Z,7.29
2022-11-03T04:57:18.472Z,7.26
2022-11-03T04:58:18.494Z,6.82
2022-11-03T04:59:16.731Z,6.63
2022-11-03T05:00:18.306Z,6.84
2022-11-03T05:01:23.734Z,7.18
2022-11-03T05:02:21.988Z,7.22
2022-11-03T05:03:34.667Z,6.81
2022-11-03T05:04:31.996Z,7.24
2022-11-03T05:05:29.300Z,7.11
2022-11-03T05:06:28.184Z,6.99
2022-11-03T05:07:34.735Z,6.72
2022-11-03T05:08:32.044Z,6.17
2022-11-03T05:09:30.394Z,6.64
2022-11-03T05:10:29.538Z,6.69
2022-11-03T05:11:37.332Z,6.16
2022-11-03T05:12:34.651Z,6.97
2022-11-03T05:13:32.062Z,6.19
2022-11-03T05:14:32.240Z,6.50
2022-11-03T05:15:34.638Z,7.06
2022-11-03T05:16:32.131Z,6.71
2022-11-03T05:17:29.463Z,6.57
2022-11-03T05:18:26.758Z,7.06
2022-11-03T05:19:42.599Z,6.70
2022-11-03T05:20:45.115Z,6.76
2022-11-03T05:21:42.507Z,7.09
2022-11-03T05:22:39.847Z,6.79
2022-11-03T05:23:42.019Z,6.92
2022-11-03T05:24:39.351Z,6.39
2022-11-03T05:25:42.429Z,7.17
2022-11-03T05:26:39.835Z,7.18
2022-11-03T05:27:37.159Z,7.40
2022-11-03T05:28:42.639Z,7.20
2022-11-03T05:29:39.982Z,7.07
2022-11-03T05:30:37.313Z,7.67
2022-11-03T05:31:35.537Z,7.02
2022-11-03T05:32:34.293Z,7.53
2022-11-03T05:33:34.586Z,7.44
2022-11-03T05:34:34.755Z,7.25
2022-11-03T05:35:32.070Z,7.80
2022-11-03T05:36:30.872Z,7.57
2022-11-03T05:37:32.773Z,6.92
2022-11-03T05:38:32.323Z,7.53
2022-11-03T05:39:41.374Z,7.54
2022-11-03T05:40:38.702Z,7.52
2022-11-03T05:41:36.095Z,7.51
2022-11-03T05:42:55.675Z,7.69
2022-11-03T05:44:03.606Z,7.70
2022-11-03T05:45:03.300Z,7.63
2022-11-03T05:46:03.244Z,7.28
2022-11-03T05:47:04.612Z,7.95
2022-11-03T05:48:18.643Z,7.57
2022-11-03T05:49:16.156Z,7.33
2022-11-03T05:50:16.824Z,7.11
2022-11-03T05:51:21.823Z,7.01
2022-11-03T05:52:26.892Z,7.42
2022-11-03T05:53:32.080Z,7.02
2022-11-03T05:54:32.869Z,7.30
2022-11-03T05:55:31.971Z,8.20
2022-11-03T05:56:31.635Z,9.83
2022-11-03T05:57:30.886Z,8.46
2022-11-03T05:58:35.337Z,8.14
2022-11-03T05:59:32.884Z,7.32
2022-11-03T06:00:32.674Z,7.37
2022-11-03T06:01:34.585Z,7.15
2022-11-03T06:02:39.462Z,6.84
2022-11-03T06:03:37.468Z,6.94
2022-11-03T06:04:40.293Z,7.68
2022-11-03T06:05:37.629Z,7.83
2022-11-03T06:06:38.258Z,7.61
2022-11-03T06:07:35.552Z,7.30
2022-11-03T06:08:38.880Z,7.52
2022-11-03T06:09:39.018Z,7.12
2022-11-03T06:10:40.739Z,7.46
2022-11-03T06:11:38.096Z,6.93
2022-11-03T06:12:35.394Z,6.97
2022-11-03T06:13:34.496Z,7.83
2022-11-03T06:14:32.367Z,7.53
2022-11-03T06:15:35.074Z,7.94
2022-11-03T06:16:37.327Z,7.37
2022-11-03T06:17:37.494Z,7.36
2022-11-03T06:18:36.590Z,7.39
2022-11-03T06:19:39.356Z,8.11
2022-11-03T06:20:36.726Z,7.83
2022-11-03T06:21:34.066Z,7.18
2022-11-03T06:22:36.174Z,7.71
2022-11-03T06:23:34.840Z,8.10
2022-11-03T06:24:34.234Z,7.85
2022-11-03T06:25:33.205Z,7.33
2022-11-03T06:26:31.082Z,7.44
2022-11-03T06:27:31.058Z,7.28
2022-11-03T06:28:36.842Z,7.06
2022-11-03T06:29:34.515Z,7.24
2022-11-03T06:30:36.500Z,7.48
2022-11-03T06:31:34.433Z,7.35
2022-11-03T06:32:33.776Z,7.41
2022-11-03T06:33:35.153Z,6.83
2022-11-03T06:34:34.605Z,7.27
2022-11-03T06:35:31.957Z,7.56
2022-11-03T06:36:32.549Z,8.08
2022-11-03T06:37:34.438Z,7.56
2022-11-03T06:38:35.121Z,7.83
2022-11-03T06:39:33.765Z,7.75
2022-11-03T06:40:34.406Z,8.12
2022-11-03T06:41:35.866Z,8.06
2022-11-03T06:42:33.390Z,7.94
2022-11-03T06:43:42.902Z,7.25
2022-11-03T06:44:45.689Z,8.28
2022-11-03T06:45:49.557Z,8.15
2022-11-03T06:46:46.837Z,8.22
2022-11-03T06:47:44.205Z,8.30
2022-11-03T06:48:41.558Z,8.15
2022-11-03T06:49:39.075Z,8.28
2022-11-03T06:50:40.964Z,8.40
2022-11-03T06:51:42.005Z,9.18
2022-11-03T06:52:44.704Z,8.63
2022-11-03T06:53:42.120Z,7.72
2022-11-03T06:54:40.401Z,8.56
2022-11-03T06:55:40.917Z,8.24
2022-11-03T06:56:38.426Z,7.75
2022-11-03T06:57:37.993Z,8.19
2022-11-03T06:58:37.292Z,8.09
2022-11-03T06:59:34.615Z,8.06
2022-11-03T07:00:34.529Z,7.83
2022-11-03T07:01:34.888Z,8.52
2022-11-03T07:02:35.158Z,8.81
2022-11-03T07:03:35.240Z,8.87
2022-11-03T07:04:33.165Z,9.04
2022-11-03T07:05:31.526Z,8.90
2022-11-03T07:06:34.597Z,9.10
2022-11-03T07:07:31.985Z,9.53
2022-11-03T07:08:35.747Z,9.20
2022-11-03T07:09:33.112Z,10.09
2022-11-03T07:10:33.115Z,9.49
2022-11-03T07:11:36.480Z,9.73
2022-11-03T07:12:33.769Z,9.45
2022-11-03T07:13:33.113Z,9.29
2022-11-03T07:14:33.863Z,10.07
2022-11-03T07:15:33.750Z,10.23
2022-11-03T07:16:39.596Z,9.91
2022-11-03T07:17:37.521Z,10.22
2022-11-03T07:18:38.911Z,10.74
2022-11-03T07:19:41.478Z,10.36
2022-11-03T07:20:39.918Z,11.05
2022-11-03T07:22:00.245Z,11.55
2022-11-03T07:23:01.533Z,11.32
2022-11-03T07:24:19.060Z,11.58
2022-11-03T07:25:19.135Z,11.39
2022-11-03T07:26:16.456Z,11.69
2022-11-03T07:27:13.733Z,11.27
2022-11-03T07:28:11.356Z,11.69
2022-11-03T07:29:16.049Z,11.38
2022-11-03T07:30:19.538Z,11.44
2022-11-03T07:31:20.466Z,11.64
2022-11-03T07:32:22.561Z,11.32
2022-11-03T07:33:26.603Z,10.95
2022-11-03T07:34:27.558Z,10.86
2022-11-03T07:35:53.316Z,11.02
2022-11-03T07:36:55.377Z,11.38
2022-11-03T07:37:54.210Z,11.49
2022-11-03T07:38:53.214Z,10.84
2022-11-03T07:39:51.937Z,10.92
2022-11-03T07:40:50.322Z,10.55
2022-11-03T07:41:47.941Z,10.66
2022-11-03T07:42:45.252Z,11.58
2022-11-03T07:43:49.432Z,11.40
2022-11-03T07:44:47.975Z,11.18
2022-11-03T07:45:48.038Z,10.56
2022-11-03T07:46:45.463Z,11.15
2022-11-03T07:47:43.978Z,11.01
2022-11-03T07:48:53.075Z,12.07
2022-11-03T07:49:50.575Z,13.32
2022-11-03T07:50:49.793Z,12.26
2022-11-03T07:51:47.638Z,11.39
2022-11-03T07:52:44.924Z,12.32
2022-11-03T07:53:44.205Z,12.62
2022-11-03T07:54:41.945Z,12.60
2022-11-03T07:55:39.347Z,12.76
2022-11-03T07:56:43.219Z,13.13
2022-11-03T07:57:40.675Z,13.37
2022-11-03T07:58:40.507Z,13.74
2022-11-03T07:59:42.531Z,13.39
2022-11-03T08:00:40.487Z,13.92
2022-11-03T08:01:41.985Z,13.98
2022-11-03T08:02:55.788Z,14.07
2022-11-03T08:03:56.601Z,14.40
2022-11-03T08:04:53.940Z,14.18
2022-11-03T08:05:51.271Z,13.20
2022-11-03T08:06:48.839Z,13.88
2022-11-03T08:07:46.171Z,14.26
2022-11-03T08:08:43.484Z,14.01
2022-11-03T08:09:40.779Z,13.18
2022-11-03T08:10:38.184Z,13.45
2022-11-03T08:11:35.490Z,13.81
2022-11-03T08:12:32.934Z,15.18
2022-11-03T08:13:31.102Z,15.81
2022-11-03T08:14:28.400Z,15.49
2022-11-03T08:15:25.720Z,15.49
2022-11-03T08:16:23.073Z,15.53
2022-11-03T08:17:20.396Z,14.92
2022-11-03T08:18:17.737Z,15.02
2022-11-03T08:19:15.138Z,15.46
2022-11-03T08:20:12.455Z,16.23
2022-11-03T08:21:09.972Z,15.66
2022-11-03T08:22:07.323Z,16.31
2022-11-03T08:23:24.528Z,15.70
2022-11-03T08:24:21.900Z,15.11
2022-11-03T08:25:19.199Z,15.44
2022-11-03T08:26:16.523Z,16.92
2022-11-03T08:27:13.851Z,15.65
2022-11-03T08:28:11.217Z,15.56
2022-11-03T08:29:08.533Z,14.49
2022-11-03T08:30:06.062Z,15.80
2022-11-03T08:31:09.495Z,15.58
2022-11-03T08:32:09.761Z,15.54
2022-11-03T08:33:07.346Z,14.97
2022-11-03T08:34:04.904Z,15.38
2022-11-03T08:35:02.199Z,14.93
2022-11-03T08:35:59.878Z,15.61
2022-11-03T08:36:57.273Z,15.47
2022-11-03T08:37:54.647Z,14.44
2022-11-03T08:38:52.133Z,15.21
2022-11-03T08:39:49.445Z,16.69
2022-11-03T08:40:50.094Z,15.85
2022-11-03T08:41:49.953Z,15.81
2022-11-03T08:42:49.204Z,15.77
2022-11-03T08:43:46.523Z,15.53
2022-11-03T08:44:43.859Z,15.43
2022-11-03T08:45:41.254Z,15.07
2022-11-03T08:46:38.670Z,14.96
2022-11-03T08:47:35.983Z,14.82
2022-11-03T08:48:33.428Z,15.35
2022-11-03T08:49:30.881Z,14.33
2022-11-03T08:50:28.471Z,13.82
2022-11-03T08:51:25.776Z,13.78
2022-11-03T08:52:23.438Z,13.79
2022-11-03T08:53:25.167Z,14.06
2022-11-03T08:54:22.515Z,14.26
2022-11-03T08:55:19.850Z,14.52
2022-11-03T08:56:20.390Z,14.05
2022-11-03T08:57:19.390Z,14.07
2022-11-03T08:58:16.836Z,13.03
2022-11-03T08:59:14.166Z,13.40
2022-11-03T09:00:11.838Z,14.05
2022-11-03T09:01:09.165Z,13.76
2022-11-03T09:02:06.646Z,13.89
2022-11-03T09:03:04.342Z,14.04
2022-11-03T09:04:01.816Z,13.72
2022-11-03T09:04:59.264Z,13.24
2022-11-03T09:05:56.581Z,13.49
2022-11-03T09:06:54.940Z,13.65
2022-11-03T09:10:33.360Z,13.37
2022-11-03T09:11:32.849Z,13.12
2022-11-03T09:12:30.383Z,12.57
2022-11-03T09:13:27.717Z,12.70
2022-11-03T09:14:25.006Z,12.88
2022-11-03T09:15:22.458Z,12.51
2022-11-03T09:16:19.756Z,12.89
2022-11-03T09:17:17.090Z,12.73
2022-11-03T09:18:14.406Z,12.29
2022-11-03T09:19:11.696Z,12.51
2022-11-03T09:20:09.958Z,12.91
2022-11-03T09:21:07.689Z,12.53
2022-11-03T09:22:05.562Z,12.91
2022-11-03T09:23:02.947Z,12.30
2022-11-03T09:24:00.339Z,12.03
2022-11-03T09:24:57.673Z,11.66
2022-11-03T09:25:55.049Z,12.06
2022-11-03T09:26:52.456Z,12.42
2022-11-03T09:27:49.810Z,11.84
2022-11-03T09:28:47.276Z,12.15
2022-11-03T09:30:11.065Z,12.00
2022-11-03T09:31:01.879Z,11.98
2022-11-03T09:31:59.238Z,12.33
2022-11-03T09:32:56.541Z,11.79
2022-11-03T09:33:54.187Z,12.27
2022-11-03T09:34:51.527Z,12.19
2022-11-03T09:35:48.859Z,11.45
2022-11-03T09:36:52.160Z,11.62
2022-11-03T09:37:50.475Z,11.49
2022-11-03T09:38:47.808Z,11.81
2022-11-03T09:39:45.127Z,11.72
2022-11-03T09:40:42.465Z,11.22
2022-11-03T09:41:57.932Z,11.06
2022-11-03T09:42:57.052Z,11.59
2022-11-03T09:43:57.072Z,11.50
2022-11-03T09:44:55.464Z,11.63
2022-11-03T09:45:53.327Z,12.33
2022-11-03T09:46:56.837Z,11.76
2022-11-03T09:47:56.960Z,11.29
2022-11-03T09:48:55.567Z,10.71
2022-11-03T09:49:52.880Z,10.67
2022-11-03T09:50:53.572Z,10.42
2022-11-03T09:51:50.971Z,11.12
2022-11-03T09:52:51.726Z,11.75
2022-11-03T09:53:49.944Z,10.84
2022-11-03T09:54:47.321Z,10.77
2022-11-03T09:55:44.652Z,10.89
2022-11-03T09:56:43.146Z,10.58
2022-11-03T09:57:41.001Z,10.49
2022-11-03T09:58:38.455Z,10.96
2022-11-03T09:59:37.457Z,10.46
2022-11-03T10:00:34.754Z,10.68
2022-11-03T10:01:32.189Z,11.14
2022-11-03T10:02:31.746Z,10.63
2022-11-03T10:03:30.366Z,10.63
2022-11-03T10:04:29.006Z,10.95
2022-11-03T10:05:27.906Z,10.86
2022-11-03T10:06:25.265Z,10.02
2022-11-03T10:07:24.048Z,10.12
2022-11-03T10:08:24.240Z,10.11
2022-11-03T10:09:23.399Z,10.63
2022-11-03T10:10:22.156Z,10.45
2022-11-03T10:11:19.619Z,10.69
2022-11-03T10:12:17.293Z,10.24
2022-11-03T10:13:23.358Z,10.30
2022-11-03T10:14:22.928Z,10.14
2022-11-03T10:15:22.691Z,10.33
2022-11-03T10:16:22.795Z,10.23
2022-11-03T10:17:22.076Z,10.24
2022-11-03T10:18:19.599Z,9.96
2022-11-03T10:19:16.944Z,9.62
2022-11-03T10:20:16.084Z,9.72
2022-11-03T10:21:22.585Z,9.22
2022-11-03T10:22:21.098Z,9.63
2022-11-03T10:23:18.411Z,10.24
2022-11-03T10:24:15.759Z,9.62
2022-11-03T10:25:30.084Z,9.57
2022-11-03T10:26:27.414Z,9.71
2022-11-03T10:27:25.962Z,9.77
2022-11-03T10:28:25.014Z,9.82
2022-11-03T10:29:24.079Z,9.23
2022-11-03T10:30:21.366Z,8.93
2022-11-03T10:31:20.134Z,8.82
2022-11-03T10:32:29.549Z,7.28
2022-11-03T10:33:31.726Z,8.10
2022-11-03T10:34:39.448Z,8.42
2022-11-03T10:35:36.841Z,9.03
2022-11-03T10:36:34.998Z,8.65
2022-11-03T10:37:32.648Z,8.26
2022-11-03T10:38:34.296Z,8.83
2022-11-03T10:39:31.991Z,8.88
2022-11-03T10:40:51.992Z,8.75
2022-11-03T10:41:57.456Z,8.88
2022-11-03T10:43:01.056Z,8.42
2022-11-03T10:44:01.495Z,8.01
2022-11-03T10:45:11.075Z,8.94
2022-11-03T10:46:29.460Z,7.84
2022-11-03T10:47:33.181Z,7.81
2022-11-03T10:48:30.860Z,7.28
2022-11-03T10:49:40.873Z,7.49
2022-11-03T10:50:42.149Z,7.96
2022-11-03T10:51:40.394Z,7.60
2022-11-03T10:52:37.684Z,7.18
2022-11-03T10:53:34.994Z,7.47
2022-11-03T10:54:35.556Z,7.23
2022-11-03T10:55:32.913Z,7.05
2022-11-03T10:56:30.898Z,7.21
2022-11-03T10:57:28.677Z,7.18
2022-11-03T10:58:26.098Z,7.19
2022-11-03T10:59:31.958Z,7.12
2022-11-03T11:00:29.520Z,7.19
2022-11-03T11:01:27.200Z,6.64
2022-11-03T11:02:26.758Z,7.33
2022-11-03T11:03:24.167Z,6.97
2022-11-03T11:04:21.868Z,6.66
2022-11-03T11:05:21.220Z,6.46
2022-11-03T11:06:26.605Z,6.07
2022-11-03T11:07:28.146Z,5.95
2022-11-03T11:08:25.552Z,5.89
2022-11-03T11:09:28.232Z,6.55
2022-11-03T11:10:27.267Z,6.45
2022-11-03T11:11:24.666Z,7.14
2022-11-03T11:12:25.550Z,7.72
2022-11-03T11:13:26.992Z,7.45
2022-11-03T11:14:28.110Z,7.67
2022-11-03T11:15:37.537Z,7.35
2022-11-03T11:16:49.652Z,8.07
2022-11-03T11:17:47.950Z,8.48
2022-11-03T11:18:45.223Z,7.97
2022-11-03T11:20:01.056Z,8.12
2022-11-03T11:21:14.701Z,8.07
2022-11-03T11:22:13.486Z,7.43
2022-11-03T11:23:28.962Z,7.58
2022-11-03T11:24:44.233Z,7.03
2022-11-03T11:26:07.634Z,8.02
2022-11-03T11:27:24.884Z,8.20
2022-11-03T11:28:22.181Z,8.98
2022-11-03T11:29:20.457Z,8.59
2022-11-03T11:30:20.717Z,8.73
2022-11-03T11:31:30.048Z,9.15
2022-11-03T11:32:39.454Z,8.42
2022-11-03T11:33:36.901Z,8.31
2022-11-03T11:34:34.188Z,8.06
2022-11-03T11:35:31.492Z,8.08
2022-11-03T11:36:28.879Z,8.05
2022-11-03T11:37:26.128Z,7.49
2022-11-03T11:38:41.928Z,6.90
2022-11-03T11:39:44.123Z,7.31
2022-11-03T11:40:50.510Z,8.19
2022-11-03T11:42:06.829Z,7.97
2022-11-03T11:43:04.549Z,7.23
2022-11-03T11:44:20.727Z,7.23
2022-11-03T11:45:37.945Z,6.44
2022-11-03T11:46:42.366Z,6.14
2022-11-03T11:47:49.872Z,5.96
2022-11-03T11:48:50.133Z,5.63
2022-11-03T11:49:47.497Z,5.27
2022-11-03T11:50:44.807Z,5.29
2022-11-03T11:51:42.498Z,4.68
2022-11-03T11:52:39.986Z,3.48
2022-11-03T11:53:42.072Z,4.20
2022-11-03T11:54:42.145Z,3.77
2022-11-03T11:55:56.890Z,3.65
2022-11-03T11:56:54.351Z,4.90
2022-11-03T11:57:52.888Z,5.53
2022-11-03T11:58:54.134Z,5.92
2022-11-03T11:59:51.802Z,6.15
2022-11-03T12:00:57.208Z,6.33
2022-11-03T12:01:56.902Z,6.29
2022-11-03T12:02:54.941Z,5.95
2022-11-03T12:03:55.451Z,6.17
2022-11-03T12:04:59.641Z,6.10
2022-11-03T12:05:57.026Z,5.74
2022-11-03T12:06:55.932Z,5.61
2022-11-03T12:07:53.792Z,5.65
2022-11-03T12:08:51.094Z,5.88
2022-11-03T12:09:48.437Z,5.89
2022-11-03T12:10:53.491Z,5.29
2022-11-03T12:11:55.333Z,5.17
2022-11-03T12:12:54.618Z,5.44
2022-11-03T12:13:52.627Z,5.33
2022-11-03T12:14:49.959Z,4.78
2022-11-03T12:15:57.424Z,4.89
2022-11-03T12:16:55.750Z,4.95
2022-11-03T12:17:53.012Z,4.67
2022-11-03T12:18:50.747Z,4.71
2022-11-03T12:19:49.820Z,4.65
2022-11-03T12:20:47.901Z,4.58
2022-11-03T12:21:47.183Z,4.49
2022-11-03T12:22:44.485Z,5.07
2022-11-03T12:23:46.293Z,4.62
2022-11-03T12:24:48.785Z,4.26
2022-11-03T12:25:46.069Z,4.53
2022-11-03T12:26:43.381Z,4.01
2022-11-03T12:27:42.356Z,4.07
2022-11-03T12:28:39.690Z,4.19
2022-11-03T12:29:36.983Z,4.30
2022-11-03T12:30:39.407Z,4.34
2022-11-03T12:31:37.266Z,4.93
2022-11-03T12:32:35.570Z,4.73
2022-11-03T12:33:33.136Z,4.17
2022-11-03T12:34:30.649Z,4.31
2022-11-03T12:35:27.944Z,3.81
2022-11-03T12:36:28.092Z,4.03
2022-11-03T12:37:28.298Z,4.01
2022-11-03T12:38:25.647Z,4.43
2022-11-03T12:39:22.975Z,3.93
2022-11-03T12:40:20.375Z,4.15
2022-11-03T12:41:25.103Z,3.79
2022-11-03T12:42:24.793Z,3.50
2022-11-03T12:43:22.129Z,3.71
2022-11-03T12:44:19.434Z,3.50
2022-11-03T12:45:16.791Z,3.50
2022-11-03T12:46:14.387Z,3.43
2022-11-03T12:47:11.669Z,3.21
2022-11-03T12:48:09.034Z,3.02
2022-11-03T12:49:06.343Z,3.60
2022-11-03T12:50:04.387Z,3.86
2022-11-03T12:51:01.683Z,3.53
2022-11-03T12:52:08.180Z,3.49
2022-11-03T12:53:06.984Z,3.26
2022-11-03T12:54:04.511Z,3.76
2022-11-03T12:55:01.814Z,4.01
2022-11-03T12:55:59.170Z,3.92
2022-11-03T12:56:56.439Z,4.00
2022-11-03T12:57:53.718Z,3.72
2022-11-03T12:58:51.169Z,3.51
2022-11-03T12:59:48.659Z,3.74
2022-11-03T13:00:50.007Z,3.57
2022-11-03T13:01:52.471Z,3.24
2022-11-03T13:02:49.942Z,3.32
2022-11-03T13:03:47.340Z,3.01
2022-11-03T13:04:44.632Z,3.24
2022-11-03T13:05:41.922Z,3.53
2022-11-03T13:06:39.208Z,3.67
2022-11-03T13:07:36.663Z,3.49
2022-11-03T13:08:33.971Z,3.88
2022-11-03T13:09:31.390Z,4.16
2022-11-03T13:10:28.748Z,3.71
2022-11-03T13:11:44.471Z,4.11
2022-11-03T13:12:42.150Z,3.59
2022-11-03T13:13:39.471Z,3.65
2022-11-03T13:14:36.745Z,3.68
2022-11-03T13:15:34.104Z,3.72
2022-11-03T13:16:31.518Z,3.54
2022-11-03T13:17:35.777Z,3.63
2022-11-03T13:18:43.237Z,2.74
2022-11-03T13:19:40.592Z,2.83
2022-11-03T13:20:38.233Z,2.64
2022-11-03T13:21:35.519Z,2.51
2022-11-03T13:22:32.802Z,2.76
2022-11-03T13:23:30.070Z,3.23